South Mason Valley, Nevada Weather observations

Data are for 10 minute period ending at time listed.
 Day   Time   Solar   Ave.   Ave.  Ave.  Vector  Max.   Baro.   Total    
  of    of     Rad.   Air    Rel.  Wind   Wind   Wind  Press.  Precip.   
Year   Day            Temp.  Hum.  Speed  Dir.   Gust                    
2014   (PST)  Kw/m2    F      %     mph   deg.    mph    mb.     in.     
-------------------------------------------------------------------------
 241   11:50   0.41   84.5    24    4.6   276     9.9   878.9    0.00 
 241   12:00   0.48   85.0    23    1.3   301     5.2   878.8    0.00 
 241   12:10   0.59   87.9    21    0.8   255     4.2   878.8    0.00 
 241   12:20   0.84   88.6    21    1.9   293     3.9   878.7    0.00 
 241   12:30   0.91   88.9    18    3.5   167     6.3   878.5    0.00 
 241   12:40   0.58   88.3    18    2.4   121     5.0   878.3    0.00 
 241   12:50   0.43   87.3    19    2.5   164     6.9   878.4    0.00 
 241   13:00   0.55   88.0    19    1.1   257     6.1   878.4    0.00 
 241   13:10   0.43   87.6    22    3.5   266     8.6   878.3    0.00 
 241   13:20   0.29   85.4    22    3.6   277     6.9   878.2    0.00 
 241   13:30   0.25   86.2    22    1.7   220     4.2   878.0    0.00 
 241   13:40   0.32   85.1    25    2.8   203     7.0   877.9    0.00 
 241   13:50   0.48   86.8    21    2.2   120     6.7   877.5    0.00 
 241   14:00   0.52   87.2    23    3.8   144     6.1   877.5    0.00 
 241   14:10   0.48   87.2    22    5.2   146     9.9   877.4    0.00 
 241   14:20   0.49   86.9    21    4.8   141     7.4   877.2    0.00 
 241   14:30   0.41   87.3    21    5.0   177    11.2   877.2    0.00 
 241   14:40   0.34   87.0    21    2.6   223     5.3   877.2    0.00 
 241   14:50   0.31   85.5    22    5.6   228     9.9   877.2    0.00 
 241   15:00   0.33   85.3    22    5.8   212    11.9   876.9    0.00 
 241   15:10   0.39   85.7    21    6.6   208    10.7   876.8    0.00 
 241   15:20   0.33   86.1    20    6.1   211    11.3   876.6    0.00 
 241   15:30   0.47   86.5    22    5.1   212     8.6   876.7    0.00 
 241   15:40   0.53   88.3    16    6.5   244    11.4   876.6    0.00 
 241   15:50   0.34   87.3    14    8.4   231    14.1   876.6    0.00 
 241   16:00   0.30   87.0    16    5.0   225     9.1   876.7    0.00 
 241   16:10   0.21   86.1    19    3.1   225     5.8   876.6    0.00 
 241   16:20   0.16   85.8    22    2.9   237     8.0   876.6    0.00 
 241   16:30   0.13   85.1    16    5.1   253     9.5   876.6    0.00 
 241   16:40   0.08   85.4    13    7.4   242    13.0   876.6    0.00 
 241   16:50   0.08   85.6    12    6.5   278    12.3   876.6    0.00 
 241   17:00   0.11   84.5    14    5.5   284    10.3   876.6    0.00 
 241   17:10   0.11   84.4    14    6.4   283    12.3   876.6    0.00 
 241   17:20   0.09   84.5    13    7.5   281    12.0   876.6    0.00 
 241   17:30   0.07   84.9    12    8.2   278    13.7   876.7    0.00 
 241   17:40   0.04   84.8    12    7.2   275    12.7   876.7    0.00 
 241   17:50   0.04   84.1    12    4.9   274     9.7   876.7    0.00 
 241   18:00   0.03   82.9    14    4.2   285     6.3   876.9    0.00 
 241   18:10   0.02   81.1    16    3.9   304     6.5   877.0    0.00 
 241   18:20   0.01   79.8    18    4.9   310     8.6   877.0    0.00 
 241   18:30   0.00   79.4    18    5.1   306     8.6   877.0    0.00 
 241   18:40   0.00   78.9    18    4.6   303     6.9   877.1    0.00 
 241   18:50   0.00   78.8    17    5.7   300    10.3   877.2    0.00 
 241   19:00   0.00   79.6    16    7.6   301    11.7   877.2    0.00 
 241   19:10   0.00   80.2    16    7.7   310    11.8   877.2    0.00 
 241   19:20   0.00   79.5    16    8.0   302    13.7   877.3    0.00 
 241   19:30   0.00   77.9    18    6.7   301    10.5   877.5    0.00 
 241   19:40   0.00   77.4    18    6.5   295    11.4   877.7    0.00 
 241   19:50   0.00   77.2    18    7.1   295    12.1   877.8    0.00 
 241   20:00   0.00   77.1    18    8.3   302    12.0   877.9    0.00 
 241   20:10   0.00   76.8    18    7.9   312    11.5   878.0    0.00 
 241   20:20   0.00   76.3    19    6.3   320     9.8   878.0    0.00 
 241   20:30   0.00   74.6    20    6.0   318     9.1   878.1    0.00 
 241   20:40   0.00   73.9    21    6.4   307     9.1   878.3    0.00 
 241   20:50   0.00   73.9    21    6.5   312     9.5   878.3    0.00 
 241   21:00   0.00   74.6    20    8.0   315    13.2   878.1    0.00 
 241   21:10   0.00   74.8    20    6.1   309     9.9   878.2    0.00 
 241   21:20   0.00   73.5    22    3.3   316     7.0   878.3    0.00 
 241   21:30   0.00   71.7    24    3.4    38     6.1   878.2    0.00 
 241   21:40   0.00   70.4    25    3.9    38     5.7   878.0    0.00 
 241   21:50   0.00   71.8    23    2.7    52     4.3   878.0    0.00 
 241   22:00   0.00   72.6    23    1.4    67     4.1   878.0    0.00 
 241   22:10   0.00   70.2    26    2.3   305     4.2   878.1    0.00 
 241   22:20   0.00   69.1    27    3.3   309     5.8   877.9    0.00 
 241   22:30   0.00   67.1    30    4.1   301     6.1   877.8    0.00 
 241   22:40   0.00   66.1    32    3.7   324     5.3   877.9    0.00 
 241   22:50   0.00   67.0    30    3.6   330     5.4   877.8    0.00 
 241   23:00   0.00   67.9    27    3.8   291     5.1   877.8    0.00 
 241   23:10   0.00   66.1    31    5.0   298     6.1   877.7    0.00 
 241   23:20   0.00   63.4    34    4.6   312     6.4   877.7    0.00 
 241   23:30   0.00   65.2    31    4.6   326     5.8   877.6    0.00 
 241   23:40   0.00   65.8    31    3.6   295     5.7   877.7    0.00 
 241   23:50   0.00   66.3    29    3.9   277     5.0   877.7    0.00 
 242    0:00   0.00   65.4    31    4.2   290     5.0   877.6    0.00 
 242    0:10   0.00   67.2    28    4.0   275     5.0   877.7    0.00 
 242    0:20   0.00   66.8    28    1.8   274     3.4   877.6    0.00 
 242    0:30   0.00   63.8    39    2.9   341     3.9   877.6    0.00 
 242    0:40   0.00   64.9    34    1.7     4     2.9   877.6    0.00 
 242    0:50   0.00   63.4    37    1.9   119     2.7   877.6    0.00 
 242    1:00   0.00   63.7    37    1.7   143     2.8   877.4    0.00 
 242    1:10   0.00   62.9    39    1.3   104     2.6   877.3    0.00 
 242    1:20   0.00   62.1    42    0.2   167     1.0   877.3    0.00 
 242    1:30   0.00   62.3    41    0.9   230     2.0   877.4    0.00 
 242    1:40   0.00   62.7    42    1.4   288     3.0   877.3    0.00 
 242    1:50   0.00   61.9    45    1.9   256     3.1   877.5    0.00 
 242    2:00   0.00   61.9    46    0.7   254     1.7   877.3    0.00 
 242    2:10   0.00   62.3    44    1.5   338     2.9   877.5    0.00 
 242    2:20   0.00   63.0    44    0.8   348     1.8   877.4    0.00 
 242    2:30   0.00   61.7    52    0.4   256     2.3   877.3    0.00 
 242    2:40   0.00   61.0    50    1.4   282     3.7   877.3    0.00 
 242    2:50   0.00   63.0    42    1.7   313     4.8   877.5    0.00 
 242    3:00   0.00   61.5    47    1.6    44     3.6   877.5    0.00 
 242    3:10   0.00   60.4    51    1.4   128     4.2   877.5    0.00 
 242    3:20   0.00   59.5    55    1.2   169     2.0   877.5    0.00 
 242    3:30   0.00   59.3    54    2.2    61     3.8   877.3    0.00 
 242    3:40   0.00   60.1    47    2.3    66     3.4   877.3    0.00 
 242    3:50   0.00   60.1    48    0.6    47     1.6   877.3    0.00 
 242    4:00   0.00   60.0    48    1.1   343     2.0   877.3    0.00 
 242    4:10   0.00   60.3    47    0.5   311     1.9   877.3    0.00 
 242    4:20   0.00   61.0    46    1.7   328     4.1   877.1    0.00 
 242    4:30   0.00   59.4    52    1.3   309     2.7   877.2    0.00 
 242    4:40   0.00   58.0    57    0.7   220     2.3   877.2    0.00 
 242    4:50   0.00   57.3    59    1.6   281     3.9   877.2    0.00 
 242    5:00   0.00   55.9    61    1.2    62     3.5   877.2    0.00 
 242    5:10   0.00   56.3    58    1.4    54     3.3   877.2    0.00 
 242    5:20   0.00   54.8    59    2.5    23     3.4   877.3    0.00 
 242    5:30   0.00   53.0    64    3.0   353     3.9   877.5    0.00 
 242    5:40   0.01   53.8    60    1.5   317     3.7   877.7    0.00 
 242    5:50   0.02   54.4    58    3.0   313     4.3   877.8    0.00 
 242    6:00   0.07   52.4    65    2.4   332     3.9   877.9    0.00 
 242    6:10   0.10   55.6    61    1.8   312     3.2   878.0    0.00 
 242    6:20   0.13   57.8    59    2.1   289     3.4   878.1    0.00 
 242    6:30   0.15   60.4    58    1.0   265     2.6   878.1    0.00 
 242    6:40   0.19   62.8    56    0.6    52     2.5   878.2    0.00 
 242    6:50   0.23   64.6    51    0.7     5     1.6   878.1    0.00 
 242    7:00   0.26   66.2    48    1.0   306     2.0   878.0    0.00 
 242    7:10   0.30   68.4    46    0.5   308     1.4   877.9    0.00 
 242    7:20   0.33   70.6    40    1.3   249     2.9   878.1    0.00 
 242    7:30   0.37   72.6    38    0.9   301     2.3   878.1    0.00 
 242    7:40   0.40   73.8    34    0.6   346     1.5   878.3    0.00 
 242    7:50   0.44   73.6    36    2.4   340     3.8   878.5    0.00 
 242    8:00   0.47   74.9    29    0.4   310     2.1   878.5    0.00 
 242    8:10   0.50   77.0    26    1.4    16     3.5   878.7    0.00 
 242    8:20   0.53   75.9    31    2.6    14     4.3   878.8    0.00 
 242    8:30   0.56   75.6    30    2.4   343     4.6   878.9    0.00 
 242    8:40   0.60   76.9    28    2.2     7     4.2   878.8    0.00 
 242    8:50   0.63   77.5    28    2.4    14     4.5   878.7    0.00 
 242    9:00   0.65   78.7    28    2.3    26     6.6   878.8    0.00 
 242    9:10   0.68   78.1    28    4.3    28     8.0   878.8    0.00 
 242    9:20   0.71   79.3    25    2.9    40     6.6   878.7    0.00 
 242    9:30   0.73   79.8    26    2.9    28     5.3   878.7    0.00 
 242    9:40   0.76   80.0    24    3.1    49     6.4   878.6    0.00 
 242    9:50   0.77   81.3    23    3.0   313     7.2   878.6    0.00 
 242   10:00   0.79   81.2    20    3.3   187     7.1   878.6    0.00 
 242   10:10   0.81   81.5    21    3.2   308     6.4   878.5    0.00 
 242   10:20   0.83   81.6    19    2.2    51    11.4   878.5    0.00 
 242   10:30   0.85   81.6    22    3.7   360     8.3   878.4    0.00 
 242   10:40   0.86   83.0    21    2.4    16     7.3   878.2    0.00 
 242   10:50   0.87   82.2    19    3.0    46     6.4   878.1    0.00 
 242   11:00   0.88   82.9    18    2.9   316    10.1   878.0    0.00 
 242   11:10   0.89   83.0    18    2.9   263     8.6   877.9    0.00 
 242   11:20   0.90   84.1    20    2.5   331     7.4   877.8    0.00 
 242   11:30   0.90   83.7    20    3.9     6     9.0   877.6    0.00 
 242   11:40   0.91   84.5    18    2.5   268     6.5   877.5    0.00 

Return to south Mason Valley graphs page.


Western Regional Climate Center,wrcc@dri.edu